sensor_id;sensor_type;location;lat;lon;timestamp;temperature;humidity
74923;HTU21D;64715;44.760;37.678;2022-12-07T00:00:19;3.87;83.37
74923;HTU21D;64715;44.760;37.678;2022-12-07T00:01:22;3.91;83.51
74923;HTU21D;64715;44.760;37.678;2022-12-07T00:02:23;3.92;83.90
74923;HTU21D;64715;44.760;37.678;2022-12-07T00:03:24;3.92;83.71
74923;HTU21D;64715;44.760;37.678;2022-12-07T00:04:26;3.97;83.59
74923;HTU21D;64715;44.760;37.678;2022-12-07T00:05:29;3.99;83.98
74923;HTU21D;64715;44.760;37.678;2022-12-07T00:06:35;4.01;84.31
74923;HTU21D;64715;44.760;37.678;2022-12-07T00:07:36;4.02;83.77
74923;HTU21D;64715;44.760;37.678;2022-12-07T00:08:38;4.04;83.88
74923;HTU21D;64715;44.760;37.678;2022-12-07T00:09:39;4.07;84.10
74923;HTU21D;64715;44.760;37.678;2022-12-07T00:10:42;4.09;84.01
74923;HTU21D;64715;44.760;37.678;2022-12-07T00:11:45;4.09;84.19
74923;HTU21D;64715;44.760;37.678;2022-12-07T00:12:48;4.09;84.33
74923;HTU21D;64715;44.760;37.678;2022-12-07T00:13:56;4.08;84.15
74923;HTU21D;64715;44.760;37.678;2022-12-07T00:14:57;4.07;83.72
74923;HTU21D;64715;44.760;37.678;2022-12-07T00:16:03;4.06;83.85
74923;HTU21D;64715;44.760;37.678;2022-12-07T00:17:04;4.03;83.97
74923;HTU21D;64715;44.760;37.678;2022-12-07T00:18:05;4.04;83.87
74923;HTU21D;64715;44.760;37.678;2022-12-07T00:19:07;4.03;84.09
74923;HTU21D;64715;44.760;37.678;2022-12-07T00:20:08;4.02;83.98
74923;HTU21D;64715;44.760;37.678;2022-12-07T00:21:19;3.98;83.60
74923;HTU21D;64715;44.760;37.678;2022-12-07T00:22:20;3.99;83.72
74923;HTU21D;64715;44.760;37.678;2022-12-07T00:23:21;3.95;83.82
74923;HTU21D;64715;44.760;37.678;2022-12-07T00:24:22;3.98;83.54
74923;HTU21D;64715;44.760;37.678;2022-12-07T00:25:23;3.94;84.03
74923;HTU21D;64715;44.760;37.678;2022-12-07T00:26:26;3.93;83.94
74923;HTU21D;64715;44.760;37.678;2022-12-07T00:27:28;3.93;83.99
74923;HTU21D;64715;44.760;37.678;2022-12-07T00:28:28;3.91;83.68
74923;HTU21D;64715;44.760;37.678;2022-12-07T00:29:29;3.88;83.79
74923;HTU21D;64715;44.760;37.678;2022-12-07T00:30:30;3.88;83.78
74923;HTU21D;64715;44.760;37.678;2022-12-07T00:31:35;3.86;83.99
74923;HTU21D;64715;44.760;37.678;2022-12-07T00:32:39;3.83;84.03
74923;HTU21D;64715;44.760;37.678;2022-12-07T00:33:40;3.80;83.94
74923;HTU21D;64715;44.760;37.678;2022-12-07T00:34:41;3.80;84.02
74923;HTU21D;64715;44.760;37.678;2022-12-07T00:35:42;3.74;83.64
74923;HTU21D;64715;44.760;37.678;2022-12-07T00:36:43;3.71;83.74
74923;HTU21D;64715;44.760;37.678;2022-12-07T00:37:44;3.69;83.68
74923;HTU21D;64715;44.760;37.678;2022-12-07T00:38:46;3.63;83.89
74923;HTU21D;64715;44.760;37.678;2022-12-07T00:39:47;3.61;83.55
74923;HTU21D;64715;44.760;37.678;2022-12-07T00:40:56;3.57;83.52
74923;HTU21D;64715;44.760;37.678;2022-12-07T00:41:57;3.55;83.60
74923;HTU21D;64715;44.760;37.678;2022-12-07T00:42:58;3.48;83.45
74923;HTU21D;64715;44.760;37.678;2022-12-07T00:43:59;3.45;83.42
74923;HTU21D;64715;44.760;37.678;2022-12-07T00:45:00;3.42;83.38
74923;HTU21D;64715;44.760;37.678;2022-12-07T00:46:01;3.38;83.53
74923;HTU21D;64715;44.760;37.678;2022-12-07T00:47:02;3.34;83.49
74923;HTU21D;64715;44.760;37.678;2022-12-07T00:48:03;3.30;83.73
74923;HTU21D;64715;44.760;37.678;2022-12-07T00:49:05;3.28;83.51
74923;HTU21D;64715;44.760;37.678;2022-12-07T00:50:06;3.26;83.75
74923;HTU21D;64715;44.760;37.678;2022-12-07T00:51:09;3.24;83.87
74923;HTU21D;64715;44.760;37.678;2022-12-07T00:52:10;3.20;83.75
74923;HTU21D;64715;44.760;37.678;2022-12-07T00:53:11;3.18;83.84
74923;HTU21D;64715;44.760;37.678;2022-12-07T00:54:12;3.15;83.83
74923;HTU21D;64715;44.760;37.678;2022-12-07T00:55:14;3.13;83.87
74923;HTU21D;64715;44.760;37.678;2022-12-07T00:56:17;3.10;84.07
74923;HTU21D;64715;44.760;37.678;2022-12-07T00:57:18;3.08;84.12
74923;HTU21D;64715;44.760;37.678;2022-12-07T00:58:19;3.03;84.24
74923;HTU21D;64715;44.760;37.678;2022-12-07T00:59:20;3.01;84.49
74923;HTU21D;64715;44.760;37.678;2022-12-07T01:00:21;3.00;84.49
74923;HTU21D;64715;44.760;37.678;2022-12-07T01:01:24;2.97;84.40
74923;HTU21D;64715;44.760;37.678;2022-12-07T01:02:25;2.97;84.55
74923;HTU21D;64715;44.760;37.678;2022-12-07T01:03:26;2.95;84.45
74923;HTU21D;64715;44.760;37.678;2022-12-07T01:04:27;2.95;84.81
74923;HTU21D;64715;44.760;37.678;2022-12-07T01:05:28;2.94;84.52
74923;HTU21D;64715;44.760;37.678;2022-12-07T01:06:30;2.93;84.51
74923;HTU21D;64715;44.760;37.678;2022-12-07T01:07:31;2.91;85.19
74923;HTU21D;64715;44.760;37.678;2022-12-07T01:08:32;2.91;85.12
74923;HTU21D;64715;44.760;37.678;2022-12-07T01:09:33;2.90;85.09
74923;HTU21D;64715;44.760;37.678;2022-12-07T01:10:35;2.89;85.37
74923;HTU21D;64715;44.760;37.678;2022-12-07T01:11:36;2.88;85.43
74923;HTU21D;64715;44.760;37.678;2022-12-07T01:12:37;2.87;85.40
74923;HTU21D;64715;44.760;37.678;2022-12-07T01:13:38;2.89;85.48
74923;HTU21D;64715;44.760;37.678;2022-12-07T01:14:41;2.88;85.37
74923;HTU21D;64715;44.760;37.678;2022-12-07T01:15:43;2.89;85.62
74923;HTU21D;64715;44.760;37.678;2022-12-07T01:16:44;2.91;85.85
74923;HTU21D;64715;44.760;37.678;2022-12-07T01:17:45;2.93;85.71
74923;HTU21D;64715;44.760;37.678;2022-12-07T01:18:49;2.95;85.87
74923;HTU21D;64715;44.760;37.678;2022-12-07T01:19:50;2.98;86.10
74923;HTU21D;64715;44.760;37.678;2022-12-07T01:21:05;2.99;86.32
74923;HTU21D;64715;44.760;37.678;2022-12-07T01:22:07;3.00;86.06
74923;HTU21D;64715;44.760;37.678;2022-12-07T01:23:08;3.02;86.13
74923;HTU21D;64715;44.760;37.678;2022-12-07T01:24:10;3.01;86.37
74923;HTU21D;64715;44.760;37.678;2022-12-07T01:25:11;3.04;86.35
74923;HTU21D;64715;44.760;37.678;2022-12-07T01:26:17;3.04;86.41
74923;HTU21D;64715;44.760;37.678;2022-12-07T01:27:18;3.05;86.42
74923;HTU21D;64715;44.760;37.678;2022-12-07T01:28:19;3.06;86.22
74923;HTU21D;64715;44.760;37.678;2022-12-07T01:29:20;3.08;86.54
74923;HTU21D;64715;44.760;37.678;2022-12-07T01:30:21;3.10;86.69
74923;HTU21D;64715;44.760;37.678;2022-12-07T01:31:24;3.10;86.74
74923;HTU21D;64715;44.760;37.678;2022-12-07T01:32:26;3.11;86.54
74923;HTU21D;64715;44.760;37.678;2022-12-07T01:33:30;3.12;86.66
74923;HTU21D;64715;44.760;37.678;2022-12-07T01:34:31;3.13;86.58
74923;HTU21D;64715;44.760;37.678;2022-12-07T01:35:33;3.16;86.99
74923;HTU21D;64715;44.760;37.678;2022-12-07T01:36:36;3.16;86.83
74923;HTU21D;64715;44.760;37.678;2022-12-07T01:37:38;3.19;86.94
74923;HTU21D;64715;44.760;37.678;2022-12-07T01:38:39;3.23;87.08
74923;HTU21D;64715;44.760;37.678;2022-12-07T01:39:40;3.26;86.94
74923;HTU21D;64715;44.760;37.678;2022-12-07T01:40:42;3.32;87.07
74923;HTU21D;64715;44.760;37.678;2022-12-07T01:41:43;3.36;87.28
74923;HTU21D;64715;44.760;37.678;2022-12-07T01:42:44;3.40;87.33
74923;HTU21D;64715;44.760;37.678;2022-12-07T01:45:37;3.52;87.61
74923;HTU21D;64715;44.760;37.678;2022-12-07T01:46:39;3.56;87.26
74923;HTU21D;64715;44.760;37.678;2022-12-07T01:47:46;3.59;87.43
74923;HTU21D;64715;44.760;37.678;2022-12-07T01:48:49;3.67;87.54
74923;HTU21D;64715;44.760;37.678;2022-12-07T01:49:50;3.69;87.81
74923;HTU21D;64715;44.760;37.678;2022-12-07T01:50:53;3.74;87.51
74923;HTU21D;64715;44.760;37.678;2022-12-07T01:52:24;3.82;87.94
74923;HTU21D;64715;44.760;37.678;2022-12-07T01:53:28;3.86;88.03
74923;HTU21D;64715;44.760;37.678;2022-12-07T01:54:31;3.90;87.87
74923;HTU21D;64715;44.760;37.678;2022-12-07T01:55:34;3.97;87.96
74923;HTU21D;64715;44.760;37.678;2022-12-07T01:56:39;3.99;87.86
74923;HTU21D;64715;44.760;37.678;2022-12-07T01:57:48;4.05;88.28
74923;HTU21D;64715;44.760;37.678;2022-12-07T01:58:51;4.10;87.83
74923;HTU21D;64715;44.760;37.678;2022-12-07T01:59:53;4.17;88.12
74923;HTU21D;64715;44.760;37.678;2022-12-07T02:00:55;4.21;88.40
74923;HTU21D;64715;44.760;37.678;2022-12-07T02:01:56;4.30;88.51
74923;HTU21D;64715;44.760;37.678;2022-12-07T02:03:18;4.39;88.93
74923;HTU21D;64715;44.760;37.678;2022-12-07T02:04:21;4.49;88.84
74923;HTU21D;64715;44.760;37.678;2022-12-07T02:05:24;4.59;88.76
74923;HTU21D;64715;44.760;37.678;2022-12-07T02:06:26;4.68;88.88
74923;HTU21D;64715;44.760;37.678;2022-12-07T02:07:28;4.77;89.08
74923;HTU21D;64715;44.760;37.678;2022-12-07T02:08:29;4.87;88.76
74923;HTU21D;64715;44.760;37.678;2022-12-07T02:09:32;4.95;89.02
74923;HTU21D;64715;44.760;37.678;2022-12-07T02:10:33;5.00;88.80
74923;HTU21D;64715;44.760;37.678;2022-12-07T02:11:34;5.06;89.18
74923;HTU21D;64715;44.760;37.678;2022-12-07T02:12:35;5.10;88.85
74923;HTU21D;64715;44.760;37.678;2022-12-07T02:13:38;5.12;89.04
74923;HTU21D;64715;44.760;37.678;2022-12-07T02:14:41;5.18;89.03
74923;HTU21D;64715;44.760;37.678;2022-12-07T02:17:32;5.27;89.12
74923;HTU21D;64715;44.760;37.678;2022-12-07T02:19:30;5.27;88.98
74923;HTU21D;64715;44.760;37.678;2022-12-07T02:25:58;5.28;88.57
74923;HTU21D;64715;44.760;37.678;2022-12-07T02:27:46;5.25;88.03
74923;HTU21D;64715;44.760;37.678;2022-12-07T02:30:20;5.17;88.19
74923;HTU21D;64715;44.760;37.678;2022-12-07T02:31:22;5.13;87.89
74923;HTU21D;64715;44.760;37.678;2022-12-07T02:33:13;5.10;87.81
74923;HTU21D;64715;44.760;37.678;2022-12-07T02:33:55;5.04;87.76
74923;HTU21D;64715;44.760;37.678;2022-12-07T02:35:05;5.03;87.89
74923;HTU21D;64715;44.760;37.678;2022-12-07T02:36:21;5.00;87.92
74923;HTU21D;64715;44.760;37.678;2022-12-07T02:38:55;4.91;87.67
74923;HTU21D;64715;44.760;37.678;2022-12-07T02:40:23;4.86;87.57
74923;HTU21D;64715;44.760;37.678;2022-12-07T02:41:38;4.84;87.61
74923;HTU21D;64715;44.760;37.678;2022-12-07T02:42:48;4.81;87.45
74923;HTU21D;64715;44.760;37.678;2022-12-07T02:43:57;4.78;87.48
74923;HTU21D;64715;44.760;37.678;2022-12-07T02:44:59;4.74;87.64
74923;HTU21D;64715;44.760;37.678;2022-12-07T02:46:06;4.69;87.35
74923;HTU21D;64715;44.760;37.678;2022-12-07T02:47:10;4.67;87.64
74923;HTU21D;64715;44.760;37.678;2022-12-07T02:48:14;4.65;87.56
74923;HTU21D;64715;44.760;37.678;2022-12-07T02:49:18;4.62;87.74
74923;HTU21D;64715;44.760;37.678;2022-12-07T02:50:20;4.61;87.61
74923;HTU21D;64715;44.760;37.678;2022-12-07T02:51:22;4.61;87.63
74923;HTU21D;64715;44.760;37.678;2022-12-07T02:52:23;4.60;87.77
74923;HTU21D;64715;44.760;37.678;2022-12-07T02:53:36;4.61;87.93
74923;HTU21D;64715;44.760;37.678;2022-12-07T02:54:37;4.59;88.04
74923;HTU21D;64715;44.760;37.678;2022-12-07T02:55:40;4.62;87.86
74923;HTU21D;64715;44.760;37.678;2022-12-07T02:56:48;4.65;88.06
74923;HTU21D;64715;44.760;37.678;2022-12-07T03:00:22;4.71;88.19
74923;HTU21D;64715;44.760;37.678;2022-12-07T03:01:36;4.72;88.47
74923;HTU21D;64715;44.760;37.678;2022-12-07T03:03:06;4.77;88.70
74923;HTU21D;64715;44.760;37.678;2022-12-07T03:06:08;4.83;88.44
74923;HTU21D;64715;44.760;37.678;2022-12-07T03:09:04;4.87;88.88
74923;HTU21D;64715;44.760;37.678;2022-12-07T03:10:36;4.92;88.47
74923;HTU21D;64715;44.760;37.678;2022-12-07T03:11:48;4.93;88.54
74923;HTU21D;64715;44.760;37.678;2022-12-07T03:13:04;4.97;88.56
74923;HTU21D;64715;44.760;37.678;2022-12-07T03:14:25;5.03;89.14
74923;HTU21D;64715;44.760;37.678;2022-12-07T03:16:14;5.06;88.97
74923;HTU21D;64715;44.760;37.678;2022-12-07T03:17:18;5.12;88.96
74923;HTU21D;64715;44.760;37.678;2022-12-07T03:18:22;5.15;89.25
74923;HTU21D;64715;44.760;37.678;2022-12-07T03:19:26;5.21;89.37
74923;HTU21D;64715;44.760;37.678;2022-12-07T03:20:29;5.24;89.14
74923;HTU21D;64715;44.760;37.678;2022-12-07T03:21:39;5.31;89.35
74923;HTU21D;64715;44.760;37.678;2022-12-07T03:22:42;5.36;89.58
74923;HTU21D;64715;44.760;37.678;2022-12-07T03:23:50;5.40;89.41
74923;HTU21D;64715;44.760;37.678;2022-12-07T03:24:57;5.42;89.53
74923;HTU21D;64715;44.760;37.678;2022-12-07T03:26:00;5.47;89.21
74923;HTU21D;64715;44.760;37.678;2022-12-07T03:27:15;5.50;89.32
74923;HTU21D;64715;44.760;37.678;2022-12-07T03:28:19;5.51;89.42
74923;HTU21D;64715;44.760;37.678;2022-12-07T03:29:29;5.54;89.46
74923;HTU21D;64715;44.760;37.678;2022-12-07T03:30:54;5.55;89.45
74923;HTU21D;64715;44.760;37.678;2022-12-07T03:32:23;5.60;89.37
74923;HTU21D;64715;44.760;37.678;2022-12-07T03:33:27;5.60;89.14
74923;HTU21D;64715;44.760;37.678;2022-12-07T03:34:48;5.62;89.28
74923;HTU21D;64715;44.760;37.678;2022-12-07T03:36:01;5.65;89.38
74923;HTU21D;64715;44.760;37.678;2022-12-07T03:37:10;5.68;89.22
74923;HTU21D;64715;44.760;37.678;2022-12-07T03:38:29;5.70;89.58
74923;HTU21D;64715;44.760;37.678;2022-12-07T03:39:45;5.71;89.27
74923;HTU21D;64715;44.760;37.678;2022-12-07T03:40:54;5.75;89.38
74923;HTU21D;64715;44.760;37.678;2022-12-07T03:41:59;5.78;89.58
74923;HTU21D;64715;44.760;37.678;2022-12-07T03:43:02;5.80;89.54
74923;HTU21D;64715;44.760;37.678;2022-12-07T03:44:03;5.81;89.57
74923;HTU21D;64715;44.760;37.678;2022-12-07T03:45:06;5.89;89.39
74923;HTU21D;64715;44.760;37.678;2022-12-07T03:46:47;5.93;89.40
74923;HTU21D;64715;44.760;37.678;2022-12-07T03:48:18;5.96;89.43
74923;HTU21D;64715;44.760;37.678;2022-12-07T03:49:39;5.99;89.34
74923;HTU21D;64715;44.760;37.678;2022-12-07T03:52:24;6.04;89.27
74923;HTU21D;64715;44.760;37.678;2022-12-07T03:53:44;6.06;89.57
74923;HTU21D;64715;44.760;37.678;2022-12-07T03:56:32;6.10;89.44
74923;HTU21D;64715;44.760;37.678;2022-12-07T03:57:35;6.13;89.56
74923;HTU21D;64715;44.760;37.678;2022-12-07T03:58:37;6.17;89.44
74923;HTU21D;64715;44.760;37.678;2022-12-07T03:59:40;6.23;89.67
74923;HTU21D;64715;44.760;37.678;2022-12-07T04:00:42;6.25;89.79
74923;HTU21D;64715;44.760;37.678;2022-12-07T04:01:45;6.29;89.66
74923;HTU21D;64715;44.760;37.678;2022-12-07T04:02:52;6.34;89.68
74923;HTU21D;64715;44.760;37.678;2022-12-07T04:03:54;6.40;89.78
74923;HTU21D;64715;44.760;37.678;2022-12-07T04:04:56;6.45;89.65
74923;HTU21D;64715;44.760;37.678;2022-12-07T04:05:57;6.51;89.76
74923;HTU21D;64715;44.760;37.678;2022-12-07T04:06:59;6.57;89.85
74923;HTU21D;64715;44.760;37.678;2022-12-07T04:08:00;6.63;90.00
74923;HTU21D;64715;44.760;37.678;2022-12-07T04:09:01;6.68;90.14
74923;HTU21D;64715;44.760;37.678;2022-12-07T04:10:03;6.75;89.73
74923;HTU21D;64715;44.760;37.678;2022-12-07T04:11:05;6.79;90.25
74923;HTU21D;64715;44.760;37.678;2022-12-07T04:12:06;6.84;89.91
74923;HTU21D;64715;44.760;37.678;2022-12-07T04:13:08;6.87;90.12
74923;HTU21D;64715;44.760;37.678;2022-12-07T04:14:10;6.91;90.02
74923;HTU21D;64715;44.760;37.678;2022-12-07T04:15:19;6.94;90.20
74923;HTU21D;64715;44.760;37.678;2022-12-07T04:16:20;6.97;89.91
74923;HTU21D;64715;44.760;37.678;2022-12-07T04:17:22;7.00;89.99
74923;HTU21D;64715;44.760;37.678;2022-12-07T04:18:23;7.03;89.93
74923;HTU21D;64715;44.760;37.678;2022-12-07T04:19:29;7.04;89.60
74923;HTU21D;64715;44.760;37.678;2022-12-07T04:20:30;7.05;89.92
74923;HTU21D;64715;44.760;37.678;2022-12-07T04:21:31;7.08;89.99
74923;HTU21D;64715;44.760;37.678;2022-12-07T04:22:32;7.11;89.73
74923;HTU21D;64715;44.760;37.678;2022-12-07T04:23:33;7.13;90.09
74923;HTU21D;64715;44.760;37.678;2022-12-07T04:24:34;7.17;89.92
74923;HTU21D;64715;44.760;37.678;2022-12-07T04:25:36;7.16;89.85
74923;HTU21D;64715;44.760;37.678;2022-12-07T04:26:37;7.23;89.93
74923;HTU21D;64715;44.760;37.678;2022-12-07T04:27:38;7.23;89.85
74923;HTU21D;64715;44.760;37.678;2022-12-07T04:28:40;7.26;90.01
74923;HTU21D;64715;44.760;37.678;2022-12-07T04:29:41;7.27;89.95
74923;HTU21D;64715;44.760;37.678;2022-12-07T04:30:41;7.29;89.88
74923;HTU21D;64715;44.760;37.678;2022-12-07T04:31:43;7.32;89.79
74923;HTU21D;64715;44.760;37.678;2022-12-07T04:32:44;7.32;90.02
74923;HTU21D;64715;44.760;37.678;2022-12-07T04:33:46;7.34;89.65
74923;HTU21D;64715;44.760;37.678;2022-12-07T04:34:48;7.35;89.70
74923;HTU21D;64715;44.760;37.678;2022-12-07T04:35:49;7.38;89.78
74923;HTU21D;64715;44.760;37.678;2022-12-07T04:36:50;7.40;89.58
74923;HTU21D;64715;44.760;37.678;2022-12-07T04:37:51;7.40;90.06
74923;HTU21D;64715;44.760;37.678;2022-12-07T04:38:53;7.42;89.78
74923;HTU21D;64715;44.760;37.678;2022-12-07T04:39:55;7.45;89.73
74923;HTU21D;64715;44.760;37.678;2022-12-07T04:40:56;7.49;89.84
74923;HTU21D;64715;44.760;37.678;2022-12-07T04:41:58;7.50;90.15
74923;HTU21D;64715;44.760;37.678;2022-12-07T04:42:59;7.54;90.05
74923;HTU21D;64715;44.760;37.678;2022-12-07T04:44:03;7.56;90.08
74923;HTU21D;64715;44.760;37.678;2022-12-07T04:45:08;7.58;89.96
74923;HTU21D;64715;44.760;37.678;2022-12-07T04:46:09;7.59;90.53
74923;HTU21D;64715;44.760;37.678;2022-12-07T04:47:10;7.60;89.90
74923;HTU21D;64715;44.760;37.678;2022-12-07T04:48:11;7.63;90.14
74923;HTU21D;64715;44.760;37.678;2022-12-07T04:49:13;7.64;89.66
74923;HTU21D;64715;44.760;37.678;2022-12-07T04:50:15;7.64;89.77
74923;HTU21D;64715;44.760;37.678;2022-12-07T04:51:19;7.64;89.97
74923;HTU21D;64715;44.760;37.678;2022-12-07T04:52:20;7.67;89.64
74923;HTU21D;64715;44.760;37.678;2022-12-07T04:53:22;7.67;89.92
74923;HTU21D;64715;44.760;37.678;2022-12-07T04:54:23;7.68;89.88
74923;HTU21D;64715;44.760;37.678;2022-12-07T04:55:23;7.67;89.50
74923;HTU21D;64715;44.760;37.678;2022-12-07T04:56:25;7.65;89.62
74923;HTU21D;64715;44.760;37.678;2022-12-07T04:57:26;7.67;89.63
74923;HTU21D;64715;44.760;37.678;2022-12-07T04:58:27;7.68;89.63
74923;HTU21D;64715;44.760;37.678;2022-12-07T04:59:28;7.67;89.62
74923;HTU21D;64715;44.760;37.678;2022-12-07T05:00:29;7.70;89.73
74923;HTU21D;64715;44.760;37.678;2022-12-07T05:01:31;7.68;89.46
74923;HTU21D;64715;44.760;37.678;2022-12-07T05:02:32;7.65;89.31
74923;HTU21D;64715;44.760;37.678;2022-12-07T05:03:33;7.67;89.46
74923;HTU21D;64715;44.760;37.678;2022-12-07T05:04:34;7.67;89.28
74923;HTU21D;64715;44.760;37.678;2022-12-07T05:05:35;7.69;89.36
74923;HTU21D;64715;44.760;37.678;2022-12-07T05:06:36;7.69;89.41
74923;HTU21D;64715;44.760;37.678;2022-12-07T05:07:37;7.70;89.60
74923;HTU21D;64715;44.760;37.678;2022-12-07T05:08:38;7.69;89.66
74923;HTU21D;64715;44.760;37.678;2022-12-07T05:09:39;7.68;89.45
74923;HTU21D;64715;44.760;37.678;2022-12-07T05:10:40;7.68;89.13
74923;HTU21D;64715;44.760;37.678;2022-12-07T05:11:41;7.69;89.28
74923;HTU21D;64715;44.760;37.678;2022-12-07T05:12:44;7.69;89.47
74923;HTU21D;64715;44.760;37.678;2022-12-07T05:13:46;7.69;89.11
74923;HTU21D;64715;44.760;37.678;2022-12-07T05:14:47;7.71;89.18
74923;HTU21D;64715;44.760;37.678;2022-12-07T05:15:48;7.69;89.38
74923;HTU21D;64715;44.760;37.678;2022-12-07T05:16:50;7.72;89.06
74923;HTU21D;64715;44.760;37.678;2022-12-07T05:17:52;7.73;89.38
74923;HTU21D;64715;44.760;37.678;2022-12-07T05:18:53;7.77;89.36
74923;HTU21D;64715;44.760;37.678;2022-12-07T05:19:54;7.85;89.20
74923;HTU21D;64715;44.760;37.678;2022-12-07T05:20:55;7.88;89.83
74923;HTU21D;64715;44.760;37.678;2022-12-07T05:21:56;7.92;89.58
74923;HTU21D;64715;44.760;37.678;2022-12-07T05:22:57;7.97;89.82
74923;HTU21D;64715;44.760;37.678;2022-12-07T05:23:59;8.00;89.63
74923;HTU21D;64715;44.760;37.678;2022-12-07T05:25:00;8.03;89.63
74923;HTU21D;64715;44.760;37.678;2022-12-07T05:26:01;8.05;89.73
74923;HTU21D;64715;44.760;37.678;2022-12-07T05:27:02;8.08;89.79
74923;HTU21D;64715;44.760;37.678;2022-12-07T05:28:04;8.09;89.66
74923;HTU21D;64715;44.760;37.678;2022-12-07T05:29:05;8.12;89.74
74923;HTU21D;64715;44.760;37.678;2022-12-07T05:30:07;8.12;89.63
74923;HTU21D;64715;44.760;37.678;2022-12-07T05:31:08;8.14;89.39
74923;HTU21D;64715;44.760;37.678;2022-12-07T05:32:09;8.17;89.68
74923;HTU21D;64715;44.760;37.678;2022-12-07T05:33:10;8.18;89.70
74923;HTU21D;64715;44.760;37.678;2022-12-07T05:34:12;8.19;89.57
74923;HTU21D;64715;44.760;37.678;2022-12-07T05:35:13;8.22;89.82
74923;HTU21D;64715;44.760;37.678;2022-12-07T05:36:15;8.22;89.48
74923;HTU21D;64715;44.760;37.678;2022-12-07T05:37:16;8.26;89.69
74923;HTU21D;64715;44.760;37.678;2022-12-07T05:38:17;8.28;89.44
74923;HTU21D;64715;44.760;37.678;2022-12-07T05:39:18;8.29;89.45
74923;HTU21D;64715;44.760;37.678;2022-12-07T05:40:20;8.32;89.69
74923;HTU21D;64715;44.760;37.678;2022-12-07T05:41:21;8.33;89.83
74923;HTU21D;64715;44.760;37.678;2022-12-07T05:42:42;8.33;89.38
74923;HTU21D;64715;44.760;37.678;2022-12-07T05:43:43;8.36;89.33
74923;HTU21D;64715;44.760;37.678;2022-12-07T05:44:46;8.38;89.45
74923;HTU21D;64715;44.760;37.678;2022-12-07T05:45:47;8.38;89.29
74923;HTU21D;64715;44.760;37.678;2022-12-07T05:46:48;8.41;89.34
74923;HTU21D;64715;44.760;37.678;2022-12-07T05:47:49;8.41;89.54
74923;HTU21D;64715;44.760;37.678;2022-12-07T05:48:50;8.43;89.43
74923;HTU21D;64715;44.760;37.678;2022-12-07T05:49:51;8.44;89.20
74923;HTU21D;64715;44.760;37.678;2022-12-07T05:50:52;8.45;89.85
74923;HTU21D;64715;44.760;37.678;2022-12-07T05:51:53;8.48;89.35
74923;HTU21D;64715;44.760;37.678;2022-12-07T05:52:54;8.48;89.45
74923;HTU21D;64715;44.760;37.678;2022-12-07T05:53:55;8.48;89.43
74923;HTU21D;64715;44.760;37.678;2022-12-07T05:54:56;8.52;89.41
74923;HTU21D;64715;44.760;37.678;2022-12-07T05:55:57;8.53;89.63
74923;HTU21D;64715;44.760;37.678;2022-12-07T05:56:58;8.52;89.26
74923;HTU21D;64715;44.760;37.678;2022-12-07T05:57:59;8.57;89.25
74923;HTU21D;64715;44.760;37.678;2022-12-07T05:59:19;8.59;89.20
74923;HTU21D;64715;44.760;37.678;2022-12-07T06:00:28;8.58;89.45
74923;HTU21D;64715;44.760;37.678;2022-12-07T06:01:29;8.60;89.42
74923;HTU21D;64715;44.760;37.678;2022-12-07T06:02:30;8.62;89.10
74923;HTU21D;64715;44.760;37.678;2022-12-07T06:03:31;8.63;89.09
74923;HTU21D;64715;44.760;37.678;2022-12-07T06:04:34;8.63;89.06
74923;HTU21D;64715;44.760;37.678;2022-12-07T06:05:35;8.64;89.13
74923;HTU21D;64715;44.760;37.678;2022-12-07T06:06:36;8.67;89.42
74923;HTU21D;64715;44.760;37.678;2022-12-07T06:07:37;8.67;89.22
74923;HTU21D;64715;44.760;37.678;2022-12-07T06:08:38;8.71;89.15
74923;HTU21D;64715;44.760;37.678;2022-12-07T06:09:40;8.70;89.18
74923;HTU21D;64715;44.760;37.678;2022-12-07T06:10:41;8.72;89.28
74923;HTU21D;64715;44.760;37.678;2022-12-07T06:11:44;8.73;88.99
74923;HTU21D;64715;44.760;37.678;2022-12-07T06:13:03;8.72;89.06
74923;HTU21D;64715;44.760;37.678;2022-12-07T06:14:04;8.74;89.23
74923;HTU21D;64715;44.760;37.678;2022-12-07T06:15:06;8.76;89.08
74923;HTU21D;64715;44.760;37.678;2022-12-07T06:16:07;8.75;89.02
74923;HTU21D;64715;44.760;37.678;2022-12-07T06:17:09;8.76;89.08
74923;HTU21D;64715;44.760;37.678;2022-12-07T06:18:11;8.78;88.96
74923;HTU21D;64715;44.760;37.678;2022-12-07T06:19:12;8.78;89.00
74923;HTU21D;64715;44.760;37.678;2022-12-07T06:20:13;8.79;88.94
74923;HTU21D;64715;44.760;37.678;2022-12-07T06:21:15;8.82;88.80
74923;HTU21D;64715;44.760;37.678;2022-12-07T06:22:17;8.82;88.93
74923;HTU21D;64715;44.760;37.678;2022-12-07T06:23:18;8.81;89.16
74923;HTU21D;64715;44.760;37.678;2022-12-07T06:24:19;8.86;89.18
74923;HTU21D;64715;44.760;37.678;2022-12-07T06:25:20;8.85;88.70
74923;HTU21D;64715;44.760;37.678;2022-12-07T06:26:21;8.85;88.74
74923;HTU21D;64715;44.760;37.678;2022-12-07T06:27:22;8.87;88.41
74923;HTU21D;64715;44.760;37.678;2022-12-07T06:28:23;8.87;88.98
74923;HTU21D;64715;44.760;37.678;2022-12-07T06:29:25;8.88;88.61
74923;HTU21D;64715;44.760;37.678;2022-12-07T06:30:26;8.87;88.78
74923;HTU21D;64715;44.760;37.678;2022-12-07T06:31:27;8.89;88.46
74923;HTU21D;64715;44.760;37.678;2022-12-07T06:32:28;8.91;88.45
74923;HTU21D;64715;44.760;37.678;2022-12-07T06:33:30;8.91;88.62
74923;HTU21D;64715;44.760;37.678;2022-12-07T06:34:31;8.92;88.41
74923;HTU21D;64715;44.760;37.678;2022-12-07T06:35:33;8.93;88.53
74923;HTU21D;64715;44.760;37.678;2022-12-07T06:36:35;8.91;88.47
74923;HTU21D;64715;44.760;37.678;2022-12-07T06:37:37;8.94;88.64
74923;HTU21D;64715;44.760;37.678;2022-12-07T06:38:38;8.94;88.38
74923;HTU21D;64715;44.760;37.678;2022-12-07T06:39:39;8.95;88.47
74923;HTU21D;64715;44.760;37.678;2022-12-07T06:40:40;8.95;88.44
74923;HTU21D;64715;44.760;37.678;2022-12-07T06:41:41;8.96;88.14
74923;HTU21D;64715;44.760;37.678;2022-12-07T06:42:42;8.97;88.31
74923;HTU21D;64715;44.760;37.678;2022-12-07T06:43:43;8.98;88.08
74923;HTU21D;64715;44.760;37.678;2022-12-07T06:44:45;9.00;88.29
74923;HTU21D;64715;44.760;37.678;2022-12-07T06:45:46;9.00;88.19
74923;HTU21D;64715;44.760;37.678;2022-12-07T06:46:48;9.04;88.21
74923;HTU21D;64715;44.760;37.678;2022-12-07T06:47:50;9.05;88.07
74923;HTU21D;64715;44.760;37.678;2022-12-07T06:48:51;9.06;88.07
74923;HTU21D;64715;44.760;37.678;2022-12-07T06:49:52;9.08;88.38
74923;HTU21D;64715;44.760;37.678;2022-12-07T06:50:53;9.11;88.54
74923;HTU21D;64715;44.760;37.678;2022-12-07T06:51:54;9.18;88.37
74923;HTU21D;64715;44.760;37.678;2022-12-07T06:52:55;9.20;88.36
74923;HTU21D;64715;44.760;37.678;2022-12-07T06:53:56;9.25;88.73
74923;HTU21D;64715;44.760;37.678;2022-12-07T06:54:57;9.32;88.57
74923;HTU21D;64715;44.760;37.678;2022-12-07T06:55:59;9.39;88.83
74923;HTU21D;64715;44.760;37.678;2022-12-07T06:57:00;9.44;89.13
74923;HTU21D;64715;44.760;37.678;2022-12-07T06:58:01;9.51;88.97
74923;HTU21D;64715;44.760;37.678;2022-12-07T06:59:04;9.55;88.80